createdAt,value
2023-02-02T00:02:42.750Z,2.70
2023-02-02T00:07:45.452Z,2.70
2023-02-02T00:12:48.269Z,2.70
2023-02-02T00:17:50.902Z,2.80
2023-02-02T00:22:53.485Z,2.80
2023-02-02T00:27:56.330Z,2.80
2023-02-02T00:32:58.950Z,2.70
2023-02-02T00:38:02.341Z,2.80
2023-02-02T00:43:04.914Z,2.90
2023-02-02T00:48:07.635Z,2.90
2023-02-02T00:53:10.399Z,0.70
2023-02-02T00:58:13.142Z,3.00
2023-02-02T01:03:16.302Z,2.90
2023-02-02T01:08:18.893Z,3.00
2023-02-02T01:13:21.597Z,3.00
2023-02-02T01:18:24.741Z,3.10
2023-02-02T01:23:28.304Z,3.10
2023-02-02T01:28:31.083Z,3.20
2023-02-02T01:33:34.103Z,3.20
2023-02-02T01:38:36.872Z,3.20
2023-02-02T01:43:43.181Z,3.20
2023-02-02T01:49:11.215Z,3.30
2023-02-02T01:54:21.851Z,3.30
2023-02-02T01:59:26.769Z,3.30
2023-02-02T02:04:31.298Z,3.30
2023-02-02T02:09:35.341Z,3.20
2023-02-02T02:14:56.527Z,3.20
2023-02-02T02:20:48.816Z,3.30
2023-02-02T02:26:19.553Z,3.30
2023-02-02T02:31:35.468Z,3.30
2023-02-02T02:37:18.803Z,3.40
2023-02-02T02:42:26.877Z,3.40
2023-02-02T02:47:31.458Z,3.40
2023-02-02T02:52:36.292Z,3.40
2023-02-02T02:57:55.789Z,3.40
2023-02-02T03:03:14.023Z,3.40
2023-02-02T03:08:22.276Z,3.40
2023-02-02T03:13:26.016Z,3.40
2023-02-02T03:18:31.182Z,3.30
2023-02-02T03:23:34.189Z,3.30
2023-02-02T03:28:36.807Z,3.20
2023-02-02T03:33:39.560Z,3.30
2023-02-02T03:38:42.184Z,3.30
2023-02-02T03:43:44.748Z,3.40
2023-02-02T03:48:47.319Z,3.40
2023-02-02T03:53:49.999Z,3.40
2023-02-02T03:58:52.512Z,3.40
2023-02-02T04:03:56.475Z,3.40
2023-02-02T04:08:58.942Z,3.30
2023-02-02T04:14:01.582Z,3.40
2023-02-02T04:19:05.029Z,3.40
2023-02-02T04:24:11.336Z,3.30
2023-02-02T04:29:14.146Z,3.20
2023-02-02T04:34:16.705Z,3.20
2023-02-02T04:39:19.162Z,3.10
2023-02-02T04:44:21.881Z,3.10
2023-02-02T04:49:24.661Z,3.00
2023-02-02T04:54:27.244Z,3.00
2023-02-02T04:59:30.169Z,2.90
2023-02-02T05:04:33.328Z,3.00
2023-02-02T05:09:35.862Z,3.00
2023-02-02T05:14:38.466Z,3.00
2023-02-02T05:19:41.771Z,3.00
2023-02-02T05:24:44.403Z,3.10
2023-02-02T05:29:48.278Z,3.10
2023-02-02T05:34:51.068Z,3.00
2023-02-02T05:39:54.850Z,3.00
2023-02-02T05:44:57.578Z,2.90
2023-02-02T05:50:02.500Z,2.60
2023-02-02T05:55:05.701Z,2.40
2023-02-02T06:00:09.195Z,2.30
2023-02-02T06:05:14.636Z,2.20
2023-02-02T06:10:17.379Z,1.90
2023-02-02T06:15:20.148Z,1.70
2023-02-02T06:20:22.694Z,1.70
2023-02-02T06:25:25.527Z,1.60
2023-02-02T06:30:28.711Z,1.60
2023-02-02T06:35:31.278Z,1.50
2023-02-02T06:40:33.898Z,1.50
2023-02-02T06:45:40.233Z,1.60
2023-02-02T06:50:43.112Z,1.60
2023-02-02T06:55:53.581Z,1.70
2023-02-02T07:01:00.648Z,1.80
2023-02-02T07:06:21.539Z,1.80
2023-02-02T07:11:24.222Z,1.90
2023-02-02T07:16:27.183Z,1.90
2023-02-02T07:21:35.461Z,1.90
2023-02-02T07:26:39.185Z,1.90
2023-02-02T07:31:42.251Z,2.00
2023-02-02T07:36:44.795Z,2.10
2023-02-02T07:41:47.279Z,2.10
2023-02-02T07:46:59.902Z,2.30
2023-02-02T07:52:02.474Z,2.20
2023-02-02T07:57:04.921Z,2.30
2023-02-02T08:02:09.893Z,2.40
2023-02-02T08:07:14.285Z,2.60
2023-02-02T08:12:18.770Z,2.80
2023-02-02T08:17:23.073Z,3.00
2023-02-02T08:22:25.950Z,3.10
2023-02-02T08:27:28.536Z,3.20
2023-02-02T08:32:31.663Z,3.10
2023-02-02T08:37:34.121Z,3.00
2023-02-02T08:42:36.907Z,2.90
2023-02-02T08:47:40.358Z,2.80
2023-02-02T08:52:43.132Z,2.40
2023-02-02T08:57:45.813Z,2.40
2023-02-02T09:02:51.914Z,2.50
2023-02-02T09:07:54.618Z,2.60
2023-02-02T09:12:57.139Z,2.70
2023-02-02T09:18:00.676Z,2.70
2023-02-02T09:23:03.431Z,2.90
2023-02-02T09:28:06.193Z,2.90
2023-02-02T09:33:08.693Z,3.00
2023-02-02T09:38:11.228Z,3.00
2023-02-02T09:43:28.756Z,3.00
2023-02-02T09:49:07.810Z,3.10
2023-02-02T09:54:18.695Z,3.10
2023-02-02T09:59:25.815Z,3.20
2023-02-02T10:04:38.322Z,3.30
2023-02-02T10:10:18.582Z,3.50
2023-02-02T10:15:54.760Z,3.50
2023-02-02T10:21:03.872Z,3.70
2023-02-02T10:26:19.882Z,3.70
2023-02-02T10:31:46.096Z,3.70
2023-02-02T10:36:54.870Z,3.50
2023-02-02T10:42:29.546Z,3.40
2023-02-02T10:47:35.281Z,3.20
2023-02-02T10:52:39.681Z,3.20
2023-02-02T10:58:01.735Z,3.20
2023-02-02T11:03:07.214Z,3.40
2023-02-02T11:08:17.349Z,3.40
2023-02-02T11:13:33.737Z,3.40
2023-02-02T11:18:36.300Z,3.50
2023-02-02T11:23:38.999Z,3.50
2023-02-02T11:28:41.712Z,3.60
2023-02-02T11:33:44.209Z,3.60
2023-02-02T11:38:46.691Z,3.60
2023-02-02T11:43:52.646Z,3.50
2023-02-02T11:49:04.021Z,3.60
2023-02-02T11:54:24.199Z,3.60
2023-02-02T11:59:43.488Z,3.60
2023-02-02T12:04:54.413Z,3.60
2023-02-02T12:10:26.829Z,3.70
2023-02-02T12:15:41.678Z,3.70
2023-02-02T12:20:53.002Z,3.90
2023-02-02T12:26:18.631Z,3.70
2023-02-02T12:31:41.515Z,3.70
2023-02-02T12:36:54.098Z,3.70
2023-02-02T12:42:00.536Z,3.50
2023-02-02T12:47:20.430Z,3.50
2023-02-02T12:52:37.732Z,3.60
2023-02-02T12:58:07.370Z,3.60
2023-02-02T13:03:39.023Z,2.70
2023-02-02T13:09:02.210Z,2.60
2023-02-02T13:14:36.741Z,2.40
2023-02-02T13:19:43.280Z,2.40
2023-02-02T13:24:49.641Z,2.40
2023-02-02T13:29:56.521Z,2.50
2023-02-02T13:35:01.354Z,2.70
2023-02-02T13:40:22.893Z,2.80
2023-02-02T13:45:44.333Z,2.90
2023-02-02T13:51:12.893Z,2.80
2023-02-02T13:56:38.502Z,2.60
2023-02-02T14:01:47.571Z,2.50
2023-02-02T14:06:59.295Z,2.50
2023-02-02T14:12:08.898Z,2.50
2023-02-02T14:17:17.336Z,2.40
2023-02-02T14:22:38.793Z,2.40
2023-02-02T14:27:55.486Z,2.50
2023-02-02T14:33:22.633Z,2.40
2023-02-02T14:38:35.641Z,1.50
2023-02-02T14:43:50.966Z,1.40
2023-02-02T14:48:53.512Z,1.30
2023-02-02T14:54:01.423Z,1.20
2023-02-02T14:59:05.487Z,1.30
2023-02-02T15:04:20.164Z,1.30
2023-02-02T15:09:23.552Z,1.40
2023-02-02T15:14:31.310Z,1.40
2023-02-02T15:19:40.911Z,1.50
2023-02-02T15:24:46.063Z,1.50
2023-02-02T15:29:56.724Z,1.50
2023-02-02T15:35:03.877Z,1.50
2023-02-02T15:40:16.090Z,1.60
2023-02-02T15:45:43.736Z,1.60
2023-02-02T15:50:48.383Z,1.70
2023-02-02T15:55:51.661Z,1.70
2023-02-02T16:01:07.110Z,1.80
2023-02-02T16:06:10.487Z,1.80
2023-02-02T16:11:20.040Z,1.80
2023-02-02T16:16:25.081Z,1.80
2023-02-02T16:21:29.750Z,1.80
2023-02-02T16:26:33.513Z,1.90
2023-02-02T16:31:37.161Z,1.90
2023-02-02T16:36:40.124Z,1.80
2023-02-02T16:41:43.002Z,1.70
2023-02-02T16:46:49.403Z,1.80
2023-02-02T16:52:16.520Z,1.80
2023-02-02T16:57:24.580Z,1.80
2023-02-02T17:02:35.658Z,1.70
2023-02-02T17:07:41.035Z,1.70
2023-02-02T17:12:45.310Z,1.70
2023-02-02T17:17:49.423Z,1.70
2023-02-02T17:22:58.512Z,1.70
2023-02-02T17:28:04.486Z,1.70
2023-02-02T17:33:17.036Z,1.70
2023-02-02T17:38:21.521Z,1.70
2023-02-02T17:43:24.030Z,1.50
2023-02-02T17:48:26.956Z,1.50
2023-02-02T17:53:33.376Z,1.50
2023-02-02T17:58:36.109Z,1.50
2023-02-02T18:03:43.404Z,1.50
2023-02-02T18:08:46.585Z,1.50
2023-02-02T18:13:49.288Z,1.50
2023-02-02T18:18:51.797Z,1.50
2023-02-02T18:23:54.434Z,1.50
2023-02-02T18:28:57.109Z,1.40
2023-02-02T18:33:59.727Z,1.30
2023-02-02T18:39:02.437Z,1.30
2023-02-02T18:44:04.949Z,1.20
2023-02-02T18:49:07.355Z,1.30
2023-02-02T18:54:11.113Z,1.30
2023-02-02T18:59:13.709Z,1.30
2023-02-02T19:04:16.348Z,1.10
2023-02-02T19:09:19.165Z,1.10
2023-02-02T19:14:26.829Z,1.00
2023-02-02T19:19:33.437Z,1.10
2023-02-02T19:24:39.399Z,1.10
2023-02-02T19:29:42.040Z,1.20
2023-02-02T19:34:45.871Z,1.10
2023-02-02T19:39:48.444Z,1.10
2023-02-02T19:44:51.059Z,1.10
2023-02-02T19:49:53.529Z,1.10
2023-02-02T19:54:56.243Z,1.00
2023-02-02T20:00:01.536Z,1.00
2023-02-02T20:05:07.182Z,0.90
2023-02-02T20:10:28.123Z,1.00
2023-02-02T20:15:36.063Z,1.00
2023-02-02T20:20:40.629Z,0.90
2023-02-02T20:25:44.315Z,0.90
2023-02-02T20:30:46.990Z,0.90
2023-02-02T20:36:26.093Z,0.90
2023-02-02T20:41:28.774Z,1.00
2023-02-02T20:46:31.364Z,0.90
2023-02-02T20:56:37.556Z,1.00
2023-02-02T21:01:40.028Z,0.90
2023-02-02T21:06:42.619Z,1.00
2023-02-02T21:11:45.231Z,1.00
2023-02-02T21:16:47.939Z,1.00
2023-02-02T21:21:50.423Z,0.90
2023-02-02T21:26:53.982Z,0.80
2023-02-02T21:37:02.158Z,0.70
2023-02-02T21:42:07.717Z,0.70
2023-02-02T21:47:37.396Z,0.70
2023-02-02T21:52:40.242Z,0.70
2023-02-02T22:02:50.329Z,0.60
2023-02-02T22:12:56.529Z,0.60
2023-02-02T22:17:59.231Z,0.50
2023-02-02T22:23:03.309Z,0.60
2023-02-02T22:28:23.943Z,0.50
2023-02-02T22:33:26.810Z,0.50
2023-02-02T22:38:29.838Z,0.50
2023-02-02T22:43:32.499Z,0.50
2023-02-02T22:48:35.023Z,0.30
2023-02-02T22:53:37.495Z,0.50
2023-02-02T22:58:39.996Z,0.50
2023-02-02T23:03:42.669Z,0.40
2023-02-02T23:08:46.059Z,0.50
2023-02-02T23:18:51.464Z,0.50
2023-02-02T23:23:55.843Z,0.40
2023-02-02T23:28:58.385Z,0.40
2023-02-02T23:34:00.894Z,0.40
2023-02-02T23:39:03.514Z,0.40
2023-02-02T23:44:05.996Z,0.40
2023-02-02T23:49:08.855Z,0.40
2023-02-02T23:54:13.623Z,0.40
2023-02-02T23:59:16.081Z,0.30
